createdAt,value
2023-03-26T00:01:36.979Z,0.20
2023-03-26T00:04:06.810Z,1.60
2023-03-26T00:06:39.234Z,0.40
2023-03-26T00:09:09.548Z,0.40
2023-03-26T00:11:36.595Z,0.68
2023-03-26T00:14:03.814Z,0.15
2023-03-26T00:16:32.311Z,0.53
2023-03-26T00:19:01.398Z,0.43
2023-03-26T00:21:30.635Z,0.25
2023-03-26T00:24:00.021Z,0.50
2023-03-26T00:26:27.776Z,1.40
2023-03-26T00:28:54.854Z,1.03
2023-03-26T00:31:22.250Z,0.30
2023-03-26T00:33:55.632Z,0.20
2023-03-26T00:36:25.679Z,0.45
2023-03-26T00:38:54.118Z,0.17
2023-03-26T00:41:24.943Z,0.43
2023-03-26T00:43:56.263Z,0.52
2023-03-26T00:46:24.695Z,0.50
2023-03-26T00:48:51.719Z,3.35
2023-03-26T00:51:20.766Z,1.85
2023-03-26T00:53:49.101Z,0.83
2023-03-26T00:56:16.927Z,0.93
2023-03-26T00:58:46.155Z,0.20
2023-03-26T01:01:16.243Z,0.82
2023-03-26T01:03:57.120Z,0.13
2023-03-26T01:06:36.024Z,0.47
2023-03-26T01:09:16.199Z,1.52
2023-03-26T01:11:44.211Z,1.05
2023-03-26T01:14:23.651Z,0.32
2023-03-26T01:16:58.994Z,0.62
2023-03-26T01:19:40.804Z,1.03
2023-03-26T01:22:13.069Z,1.90
2023-03-26T01:24:40.727Z,3.80
2023-03-26T01:27:28.167Z,0.85
2023-03-26T01:30:29.940Z,0.40
2023-03-26T01:33:06.833Z,0.30
2023-03-26T01:36:11.188Z,0.82
2023-03-26T01:38:53.332Z,0.65
2023-03-26T01:41:33.878Z,1.05
2023-03-26T01:44:03.122Z,1.08
2023-03-26T01:46:36.216Z,0.40
2023-03-26T01:49:12.933Z,0.20
2023-03-26T01:51:42.203Z,0.45
2023-03-26T01:54:19.732Z,0.08
2023-03-26T01:56:58.655Z,0.77
2023-03-26T01:59:56.312Z,0.43
2023-03-26T02:02:46.637Z,0.85
2023-03-26T02:05:29.542Z,1.15
2023-03-26T02:08:21.102Z,0.70
2023-03-26T02:10:52.588Z,0.20
2023-03-26T02:13:20.056Z,0.60
2023-03-26T02:16:04.686Z,0.52
2023-03-26T02:18:39.090Z,0.68
2023-03-26T02:21:11.054Z,2.03
2023-03-26T02:23:46.800Z,0.40
2023-03-26T02:26:18.397Z,0.67
2023-03-26T02:28:45.665Z,0.50
2023-03-26T02:31:13.903Z,0.47
2023-03-26T02:33:40.883Z,1.75
2023-03-26T02:36:08.692Z,0.73
2023-03-26T02:38:35.990Z,0.40
2023-03-26T02:41:04.093Z,0.50
2023-03-26T02:43:30.951Z,0.28
2023-03-26T02:45:58.311Z,0.52
2023-03-26T02:48:26.254Z,0.50
2023-03-26T02:50:54.808Z,1.43
2023-03-26T02:53:24.155Z,0.32
2023-03-26T02:55:51.208Z,1.60
2023-03-26T02:58:18.172Z,0.88
2023-03-26T03:00:46.899Z,0.35
2023-03-26T03:03:14.541Z,0.43
2023-03-26T03:05:43.351Z,0.52
2023-03-26T03:08:10.408Z,1.10
2023-03-26T03:10:37.900Z,1.02
2023-03-26T03:13:07.811Z,0.50
2023-03-26T03:15:35.143Z,1.23
2023-03-26T03:18:02.526Z,0.47
2023-03-26T03:20:30.467Z,0.68
2023-03-26T03:22:57.532Z,1.02
2023-03-26T03:25:26.086Z,0.55
2023-03-26T03:27:54.063Z,1.00
2023-03-26T03:30:21.108Z,2.28
2023-03-26T03:32:48.121Z,1.27
2023-03-26T03:35:15.476Z,0.35
2023-03-26T03:37:42.397Z,2.22
2023-03-26T03:40:11.082Z,0.47
2023-03-26T03:42:38.492Z,1.12
2023-03-26T03:45:06.620Z,1.10
2023-03-26T03:47:33.809Z,1.05
2023-03-26T03:50:00.910Z,0.62
2023-03-26T03:52:28.218Z,0.60
2023-03-26T03:54:57.732Z,0.95
2023-03-26T03:57:24.608Z,2.45
2023-03-26T03:59:51.546Z,1.45
2023-03-26T04:02:26.245Z,2.35
2023-03-26T04:04:54.401Z,0.60
2023-03-26T04:07:21.253Z,1.92
2023-03-26T04:09:48.407Z,1.00
2023-03-26T04:12:15.539Z,0.73
2023-03-26T04:14:42.669Z,0.82
2023-03-26T04:17:10.291Z,1.27
2023-03-26T04:19:37.483Z,0.62
2023-03-26T04:22:04.359Z,0.80
2023-03-26T04:24:38.371Z,2.37
2023-03-26T04:27:06.551Z,0.40
2023-03-26T04:29:42.966Z,2.10
2023-03-26T04:32:24.713Z,0.70
2023-03-26T04:34:52.591Z,1.60
2023-03-26T04:37:32.391Z,1.37
2023-03-26T04:40:00.527Z,1.00
2023-03-26T04:42:28.772Z,0.80
2023-03-26T04:44:55.581Z,2.92
2023-03-26T04:47:23.557Z,1.20
2023-03-26T04:49:50.720Z,1.25
2023-03-26T04:52:17.677Z,1.17
2023-03-26T04:54:45.693Z,1.07
2023-03-26T04:57:27.592Z,1.50
2023-03-26T04:59:54.415Z,1.23
2023-03-26T05:02:21.289Z,0.95
2023-03-26T05:04:50.077Z,1.20
2023-03-26T05:07:19.966Z,0.60
2023-03-26T05:09:46.885Z,1.45
2023-03-26T05:12:13.998Z,1.25
2023-03-26T05:14:41.028Z,1.65
2023-03-26T05:17:10.991Z,1.60
2023-03-26T05:19:39.768Z,1.57
2023-03-26T05:22:06.810Z,2.22
2023-03-26T05:24:33.951Z,1.27
2023-03-26T05:27:00.840Z,2.00
2023-03-26T05:29:27.983Z,1.42
2023-03-26T05:31:54.812Z,1.07
2023-03-26T05:34:24.264Z,3.60
2023-03-26T05:36:51.154Z,2.55
2023-03-26T05:39:18.189Z,2.60
2023-03-26T05:41:45.178Z,0.80
2023-03-26T05:44:12.072Z,1.73
2023-03-26T05:46:39.022Z,1.42
2023-03-26T05:49:06.299Z,1.27
2023-03-26T05:51:33.159Z,0.95
2023-03-26T05:54:00.258Z,3.45
2023-03-26T05:56:27.164Z,1.43
2023-03-26T05:58:55.702Z,1.55
2023-03-26T06:01:22.785Z,1.67
2023-03-26T06:03:50.666Z,1.92
2023-03-26T06:06:20.531Z,1.27
2023-03-26T06:09:02.060Z,1.57
2023-03-26T06:11:36.556Z,1.10
2023-03-26T06:14:03.432Z,1.80
2023-03-26T06:16:30.305Z,1.48
2023-03-26T06:18:57.929Z,0.60
2023-03-26T06:21:26.348Z,1.93
2023-03-26T06:23:53.464Z,1.77
2023-03-26T06:26:20.843Z,0.90
2023-03-26T06:28:48.248Z,1.48
2023-03-26T06:33:44.327Z,1.27
2023-03-26T06:36:11.500Z,1.02
2023-03-26T06:38:38.382Z,0.52
2023-03-26T06:41:06.802Z,0.80
2023-03-26T06:43:34.014Z,1.12
2023-03-26T06:46:01.722Z,2.50
2023-03-26T06:48:28.860Z,0.60
2023-03-26T06:50:56.102Z,2.47
2023-03-26T06:53:23.133Z,2.72
2023-03-26T06:55:50.126Z,1.58
2023-03-26T06:58:17.396Z,1.13
2023-03-26T07:00:44.350Z,1.27
2023-03-26T07:03:11.808Z,1.60
2023-03-26T07:05:41.533Z,2.05
2023-03-26T07:08:08.901Z,1.10
2023-03-26T07:10:36.020Z,0.87
2023-03-26T07:13:03.184Z,1.65
2023-03-26T07:15:30.524Z,1.37
2023-03-26T07:17:57.577Z,0.82
2023-03-26T07:20:25.221Z,1.58
2023-03-26T07:22:52.758Z,0.87
2023-03-26T07:25:20.586Z,1.65
2023-03-26T07:28:08.805Z,2.72
2023-03-26T07:31:05.492Z,0.60
2023-03-26T07:33:38.880Z,1.27
2023-03-26T07:36:17.224Z,2.70
2023-03-26T07:39:22.566Z,0.98
2023-03-26T07:42:08.726Z,1.62
2023-03-26T07:45:03.228Z,1.08
2023-03-26T07:47:33.867Z,2.12
2023-03-26T07:50:02.943Z,1.40
2023-03-26T07:52:30.531Z,0.32
2023-03-26T07:54:57.865Z,0.62
2023-03-26T07:57:50.732Z,2.20
2023-03-26T08:00:40.795Z,0.52
2023-03-26T08:03:29.812Z,0.83
2023-03-26T08:06:19.785Z,1.35
2023-03-26T08:09:13.491Z,1.15
2023-03-26T08:11:50.962Z,0.57
2023-03-26T08:14:26.203Z,1.12
2023-03-26T08:17:25.663Z,2.57
2023-03-26T08:19:58.133Z,1.35
2023-03-26T08:22:36.764Z,1.75
2023-03-26T08:25:18.644Z,1.30
2023-03-26T08:27:59.129Z,1.15
2023-03-26T08:30:27.402Z,1.90
2023-03-26T08:32:58.355Z,1.80
2023-03-26T08:35:27.402Z,1.02
2023-03-26T08:37:54.603Z,0.77
2023-03-26T08:40:59.998Z,0.90
2023-03-26T08:44:05.415Z,1.63
2023-03-26T08:46:50.820Z,1.42
2023-03-26T08:49:21.924Z,1.65
2023-03-26T08:52:05.179Z,1.02
2023-03-26T08:54:41.370Z,1.90
2023-03-26T08:57:13.951Z,0.60
2023-03-26T09:00:02.580Z,1.85
2023-03-26T09:02:47.130Z,2.10
2023-03-26T09:05:53.150Z,1.75
2023-03-26T09:08:59.208Z,1.73
2023-03-26T09:11:35.145Z,0.70
2023-03-26T09:46:07.427Z,2.15
2023-03-26T09:49:07.152Z,1.83
2023-03-26T09:52:05.857Z,2.83
2023-03-26T09:54:57.754Z,3.30
2023-03-26T09:57:30.835Z,3.53
2023-03-26T10:00:47.449Z,2.05
2023-03-26T10:03:44.045Z,2.12
2023-03-26T10:06:14.214Z,1.33
2023-03-26T10:09:15.399Z,2.92
2023-03-26T10:11:42.290Z,1.33
2023-03-26T10:14:18.263Z,1.52
2023-03-26T10:17:25.799Z,2.10
2023-03-26T10:20:32.765Z,8.40
2023-03-26T10:23:45.776Z,1.52
2023-03-26T10:26:30.718Z,0.70
2023-03-26T10:29:24.213Z,1.92
2023-03-26T10:32:17.058Z,1.37
2023-03-26T10:35:21.900Z,2.70
2023-03-26T10:38:07.020Z,1.67
2023-03-26T10:40:55.454Z,3.03
2023-03-26T10:43:49.783Z,1.75
2023-03-26T10:46:29.937Z,2.10
2023-03-26T10:49:03.515Z,1.17
2023-03-26T10:51:59.616Z,2.60
2023-03-26T10:54:44.328Z,6.30
2023-03-26T10:57:19.968Z,3.72
2023-03-26T10:59:48.993Z,1.17
2023-03-26T11:02:30.435Z,1.62
2023-03-26T11:05:22.734Z,1.92
2023-03-26T11:07:59.116Z,2.20
2023-03-26T11:10:49.791Z,1.50
2023-03-26T11:13:26.482Z,1.15
2023-03-26T11:16:19.701Z,5.65
2023-03-26T11:19:11.154Z,1.90
2023-03-26T11:21:51.072Z,1.17
2023-03-26T11:24:36.288Z,1.80
2023-03-26T11:27:15.565Z,1.50
2023-03-26T11:30:34.987Z,1.62
2023-03-26T11:33:07.763Z,1.27
2023-03-26T11:35:42.704Z,1.07
2023-03-26T11:38:20.558Z,1.20
2023-03-26T11:40:53.203Z,0.70
2023-03-26T11:43:26.682Z,1.17
2023-03-26T11:45:54.129Z,1.48
2023-03-26T11:54:40.398Z,1.42
2023-03-26T11:57:13.840Z,1.20
2023-03-26T11:59:57.661Z,1.53
2023-03-26T12:02:35.722Z,2.45
2023-03-26T12:05:12.154Z,1.45
2023-03-26T12:08:00.292Z,0.90
2023-03-26T12:10:39.684Z,1.90
2023-03-26T12:13:22.003Z,2.30
2023-03-26T12:15:49.841Z,1.05
2023-03-26T12:18:34.834Z,1.17
2023-03-26T12:21:08.335Z,1.23
2023-03-26T12:23:57.157Z,1.55
2023-03-26T12:26:36.080Z,0.93
2023-03-26T12:29:15.058Z,0.35
2023-03-26T12:32:06.125Z,2.03
2023-03-26T12:34:37.508Z,1.73
2023-03-26T12:37:06.357Z,1.55
2023-03-26T12:40:10.011Z,1.10
2023-03-26T12:44:47.043Z,0.80
2023-03-26T12:45:20.120Z,2.30
2023-03-26T12:47:59.920Z,0.98
2023-03-26T12:50:59.458Z,1.25
2023-03-26T12:53:55.608Z,1.20
2023-03-26T12:56:40.895Z,2.28
2023-03-26T12:59:38.720Z,2.30
2023-03-26T13:02:08.466Z,2.70
2023-03-26T13:05:04.915Z,1.55
2023-03-26T13:07:52.038Z,0.80
2023-03-26T13:10:26.571Z,2.22
2023-03-26T13:13:32.539Z,0.95
2023-03-26T13:16:17.002Z,0.40
2023-03-26T13:18:52.769Z,0.93
2023-03-26T13:21:57.480Z,0.50
2023-03-26T13:24:33.882Z,1.10
2023-03-26T13:27:19.780Z,0.30
2023-03-26T13:30:21.523Z,1.02
2023-03-26T13:32:57.828Z,1.02
2023-03-26T13:35:41.507Z,0.30
2023-03-26T13:38:59.157Z,0.50
2023-03-26T13:41:27.927Z,0.37
2023-03-26T13:44:09.760Z,1.70
2023-03-26T13:46:52.497Z,0.60
2023-03-26T13:49:37.544Z,0.37
2023-03-26T13:52:12.820Z,0.88
2023-03-26T13:54:44.629Z,0.80
2023-03-26T13:57:29.971Z,0.80
2023-03-26T14:00:06.769Z,0.30
2023-03-26T14:02:40.631Z,0.50
2023-03-26T14:05:14.391Z,0.95
2023-03-26T14:08:17.173Z,1.08
2023-03-26T14:10:54.094Z,1.17
2023-03-26T14:13:49.890Z,0.52
2023-03-26T14:16:22.427Z,0.70
2023-03-26T14:18:54.808Z,1.05
2023-03-26T14:21:40.899Z,1.65
2023-03-26T14:24:53.116Z,2.12
2023-03-26T14:27:45.349Z,0.77
2023-03-26T14:30:46.036Z,0.30
2023-03-26T14:33:39.001Z,0.40
2023-03-26T14:36:09.331Z,2.25
2023-03-26T14:39:30.719Z,0.50
2023-03-26T15:22:40.448Z,0.60
2023-03-26T15:25:31.877Z,0.43
2023-03-26T15:28:22.663Z,0.45
2023-03-26T15:31:06.764Z,0.57
2023-03-26T15:34:10.502Z,2.50
2023-03-26T15:37:07.701Z,0.40
2023-03-26T15:39:59.799Z,0.77
2023-03-26T15:42:30.360Z,1.45
2023-03-26T15:45:22.510Z,1.23
2023-03-26T15:48:03.513Z,0.55
2023-03-26T15:51:04.538Z,0.80
2023-03-26T15:53:38.871Z,0.57
2023-03-26T15:56:34.742Z,2.12
2023-03-26T15:59:15.773Z,1.40
2023-03-26T16:02:02.533Z,0.60
2023-03-26T16:04:55.821Z,0.85
2023-03-26T16:07:42.476Z,0.50
2023-03-26T16:10:22.243Z,1.83
2023-03-26T16:13:21.983Z,0.80
2023-03-26T16:16:04.896Z,1.75
2023-03-26T16:18:39.414Z,1.58
2023-03-26T16:21:32.213Z,0.62
2023-03-26T16:24:03.717Z,0.90
2023-03-26T16:26:55.223Z,1.00
2023-03-26T16:29:31.053Z,1.37
2023-03-26T16:32:26.165Z,1.83
2023-03-26T16:35:03.148Z,2.55
2023-03-26T16:37:36.921Z,1.25
2023-03-26T16:40:18.742Z,1.00
2023-03-26T16:43:13.974Z,1.40
2023-03-26T16:46:06.462Z,2.08
2023-03-26T16:49:04.447Z,5.00
2023-03-26T16:51:51.007Z,4.62
2023-03-26T16:54:47.858Z,4.43
2023-03-26T16:57:24.243Z,2.72
2023-03-26T17:00:06.363Z,2.10
2023-03-26T17:02:43.120Z,2.95
2023-03-26T17:05:18.276Z,5.18
2023-03-26T17:08:14.191Z,5.67
2023-03-26T17:11:01.113Z,5.47
2023-03-26T17:13:42.002Z,4.47
2023-03-26T17:16:23.056Z,5.57
2023-03-26T17:19:04.398Z,8.07
2023-03-26T17:21:47.286Z,5.07
2023-03-26T17:24:43.049Z,6.12
2023-03-26T17:27:44.538Z,5.60
2023-03-26T17:30:46.840Z,7.03
2023-03-26T17:33:24.261Z,7.12
2023-03-26T17:36:12.132Z,9.83
2023-03-26T17:38:39.825Z,6.55
2023-03-26T17:41:16.485Z,5.37
2023-03-26T17:43:52.739Z,5.45
2023-03-26T17:46:43.101Z,5.93
2023-03-26T17:49:13.973Z,8.43
2023-03-26T17:52:00.259Z,7.87
2023-03-26T17:54:35.335Z,4.93
2023-03-26T17:57:13.135Z,6.15
2023-03-26T17:59:43.698Z,7.40
2023-03-26T18:02:19.362Z,4.87
2023-03-26T18:04:50.720Z,3.55
2023-03-26T18:07:42.493Z,4.07
2023-03-26T18:10:50.550Z,7.97
2023-03-26T18:13:24.248Z,4.90
2023-03-26T18:16:25.402Z,6.70
2023-03-26T18:19:05.798Z,6.57
2023-03-26T18:21:40.184Z,7.25
2023-03-26T18:24:15.129Z,7.40
2023-03-26T18:26:54.528Z,5.90
2023-03-26T18:29:28.461Z,8.97
2023-03-26T18:32:22.716Z,5.60
2023-03-26T18:34:58.425Z,4.95
2023-03-26T18:37:36.765Z,4.43
2023-03-26T18:40:35.288Z,5.15
2023-03-26T18:43:04.166Z,4.37
2023-03-26T18:45:41.887Z,6.25
2023-03-26T18:48:20.926Z,3.47
2023-03-26T18:51:04.974Z,4.62
2023-03-26T18:53:48.704Z,5.87
2023-03-26T18:56:31.196Z,4.27
2023-03-26T18:59:01.210Z,4.22
2023-03-26T19:01:33.191Z,4.95
2023-03-26T19:04:06.548Z,4.28
2023-03-26T19:06:39.140Z,5.43
2023-03-26T19:09:28.067Z,4.20
2023-03-26T19:12:36.521Z,4.25
2023-03-26T19:15:11.238Z,5.30
2023-03-26T19:17:58.465Z,4.40
2023-03-26T19:20:34.423Z,3.72
2023-03-26T19:23:02.557Z,5.83
2023-03-26T19:25:38.430Z,6.25
2023-03-26T19:28:07.279Z,7.75
2023-03-26T19:30:41.155Z,7.03
2023-03-26T19:33:21.323Z,7.18
2023-03-26T19:36:05.847Z,6.37
2023-03-26T19:39:14.735Z,5.32
2023-03-26T19:41:52.601Z,4.65
2023-03-26T19:44:32.171Z,6.53
2023-03-26T19:47:35.274Z,4.53
2023-03-26T19:50:34.274Z,4.30
2023-03-26T19:53:16.614Z,4.90
2023-03-26T19:56:13.349Z,3.42
2023-03-26T19:58:43.182Z,4.37
2023-03-26T20:01:20.894Z,8.13
2023-03-26T20:03:52.204Z,8.43
2023-03-26T20:06:30.766Z,6.53
2023-03-26T20:09:02.501Z,5.05
2023-03-26T20:11:40.000Z,5.55
2023-03-26T20:14:13.813Z,3.65
2023-03-26T20:16:42.925Z,2.83
2023-03-26T20:19:11.860Z,4.15
2023-03-26T20:21:40.634Z,2.92
2023-03-26T20:24:15.206Z,4.07
2023-03-26T20:26:44.620Z,9.52
2023-03-26T20:29:16.586Z,9.53
2023-03-26T20:31:44.808Z,6.87
2023-03-26T20:34:17.198Z,5.68
2023-03-26T20:36:45.732Z,4.12
2023-03-26T20:39:13.754Z,3.03
2023-03-26T20:41:46.542Z,3.73
2023-03-26T20:44:17.288Z,4.57
2023-03-26T20:46:45.461Z,3.08
2023-03-26T20:49:15.075Z,3.65
2023-03-26T20:51:42.638Z,5.18
2023-03-26T20:54:22.097Z,2.37
2023-03-26T20:56:49.840Z,3.55
2023-03-26T20:59:21.831Z,2.72
2023-03-26T21:01:50.406Z,2.47
2023-03-26T21:04:19.252Z,2.37
2023-03-26T21:06:46.579Z,3.80
2023-03-26T21:09:17.555Z,2.95
2023-03-26T21:12:05.825Z,3.00
2023-03-26T21:14:33.474Z,3.28
2023-03-26T21:17:01.346Z,3.53
2023-03-26T21:19:29.174Z,8.87
2023-03-26T21:22:11.401Z,3.15
2023-03-26T21:24:44.215Z,1.73
2023-03-26T21:27:36.114Z,1.23
2023-03-26T21:30:14.376Z,1.40
2023-03-26T21:32:46.140Z,0.83
2023-03-26T21:35:14.794Z,1.33
2023-03-26T21:37:44.082Z,0.40
2023-03-26T21:40:16.900Z,0.90
2023-03-26T21:42:46.808Z,0.77
2023-03-26T21:45:14.402Z,0.97
2023-03-26T21:47:41.896Z,0.75
2023-03-26T21:50:12.510Z,0.20
2023-03-26T21:52:47.092Z,0.65
2023-03-26T21:55:24.398Z,1.50
2023-03-26T21:57:53.935Z,1.13
2023-03-26T22:00:33.511Z,1.12
2023-03-26T22:03:13.826Z,0.57
2023-03-26T22:05:52.145Z,0.60
2023-03-26T22:08:37.234Z,1.35
2023-03-26T22:11:05.172Z,1.07
2023-03-26T22:13:32.033Z,0.93
2023-03-26T22:15:59.525Z,1.45
2023-03-26T22:18:30.004Z,0.35
2023-03-26T22:20:59.188Z,0.93
2023-03-26T22:23:27.577Z,0.60
2023-03-26T22:25:54.692Z,0.52
2023-03-26T22:28:21.984Z,1.20
2023-03-26T22:30:48.944Z,0.82
2023-03-26T22:33:17.953Z,0.77
2023-03-26T22:35:45.083Z,0.70
2023-03-26T22:38:12.282Z,1.80
2023-03-26T22:40:40.737Z,1.42
2023-03-26T22:43:07.856Z,0.57
2023-03-26T22:45:34.977Z,1.42
2023-03-26T22:48:04.695Z,2.30
2023-03-26T22:50:32.902Z,1.33
2023-03-26T22:53:00.066Z,2.95
2023-03-26T22:55:28.331Z,1.58
2023-03-26T22:57:56.964Z,1.30
2023-03-26T23:00:26.485Z,1.83
2023-03-26T23:02:55.988Z,2.15
2023-03-26T23:05:23.610Z,1.62
2023-03-26T23:07:52.258Z,1.33
2023-03-26T23:10:19.321Z,0.95
2023-03-26T23:12:46.451Z,1.33
2023-03-26T23:15:14.130Z,1.20
2023-03-26T23:17:43.338Z,2.10
2023-03-26T23:20:14.619Z,1.33
2023-03-26T23:22:43.022Z,1.77
2023-03-26T23:25:11.399Z,0.87
2023-03-26T23:27:40.125Z,0.88
2023-03-26T23:30:08.338Z,1.62
2023-03-26T23:32:38.000Z,1.10
2023-03-26T23:35:06.153Z,0.85
2023-03-26T23:37:35.201Z,1.40
2023-03-26T23:40:10.279Z,1.35
2023-03-26T23:42:38.069Z,0.70
2023-03-26T23:45:06.194Z,1.10
2023-03-26T23:47:34.474Z,1.15
2023-03-26T23:50:05.126Z,1.33
2023-03-26T23:52:32.309Z,0.80
2023-03-26T23:55:02.789Z,1.05
2023-03-26T23:57:30.631Z,0.98
2023-03-26T23:59:58.841Z,1.10
